FIMP

Sir Seewoosagur Ramgoolam International Airport

Port Louis, Mauritius
METAR FIMP 161000Z 07012KT 9999 FEW018 30/23 Q1015
Observed Flight Rules
Dec-16 @ 10:00 UTC (an hour ago) Visual Flight Rules
Wind Visibility Clouds
70° at 12 knots 10,000+ meters
  • Few at 1,800' AGL
Temperatures Readings
Current 30°C / 86°F
Dewpoint 23°C / 73°F
Humidity 66%
Altimeter 29.97" Hg
Pressure 1015 hPa
Elevation 57
METAR FIMP 161000Z 07012KT 9999 FEW018 30/23 Q1015
Observed Flight Rules
Dec-16 @ 10:00 UTC
(an hour ago)
VFR
Wind Visibility
70° at 12 knots 10,000+ meters
Clouds
  • Few at 1,800' AGL
Temperature Dewpoint
30°C / 86°F 23°C / 73°F
Humidity Altimeter Pressure
66% 29.97" Hg 1015 hPa